KNLC/NLC METAR and TAF weather

Enter ICAO airport designator
Station Type Date Time Source
KNLC METAR 2024/05/28 21:56 UTC NOAA

KNLC 282156Z 33007KT 10SM FEW044 33/07 A2996 RMK AO2 SLP143 RH/19 T03330072


Station Type Date Time Source
KNLC Decoded METAR 2024/05/28 21:56 UTC NOAA

LEMOORE NAVAL AIR STATION, CA, United States (KNLC) 36-20N 119-57W 72M
May 28, 2024 - 05:56 PM EDT / 2024.05.28 2156 UTC
Wind: from the NNW (330 degrees) at 8 MPH (7 KT):0
Visibility: 10 mile(s):0
Sky conditions: mostly clear
Temperature: 91.9 F (33.3 C)
Dew Point: 45.0 F (7.2 C)
Relative Humidity: 19%
Pressure (altimeter): 29.96 in. Hg (1014 hPa)
ob: KNLC 282156Z 33007KT 10SM FEW044 33/07 A2996 RMK AO2 SLP143 RH/19 T03330072
cycle: 22

Station Type Date Time Source
KNLC TAF 2024/05/28 15:58 UTC NOAA